Главная страница
METAR-TAF:

METAR-TAF

Аэропорты :

Sullivan County International Airport

Monticello, Нью-Йорк, США

широта: 41-42N, долгота: 074-48W, высота над уровнем моря: 428 м

Текущие метеонаблюдения

Эта сводка был подготовлена 8 минут назад, в 18:13 UTC
Ветер 9 Узел от восточно-юго-восточный
Температура -9°C
Влажность 85%
Давление 1023 hPa
Видимость: 1.2 км
Рассеянная облачность на высоте 900 фута
Сплошная облачность на высоте 1400 фута
небольшой снег, дымка

METAR: KMSV 181813Z AUTO 12009KT 3/4SM -SN BR BKN009 OVC014 M09/M11 A3021 RMK AO2 CIG 008V012 PRESFR P0000 FZRANO RVRNO

Время: 13:21 (18:21 UTC)


TAF: отсутствует

Метеонаблюдения и прогнозы для более 4000 аэропортов (сводки METAR и TAF).

Имеющиеся станции представлены на карте желтыми и красными точками.

Чтобы увидеть название станции, наведите на нее мышь.

Затем щелкните, чтобы увидеть метеонаблюдения и метеопрогнозы.

Управление картой: чтобы увеличить масштаб, щелкните зеленые кнопки с черным крестиком; чтобы уменьшить масштаб, щелкните зеленую кнопку с тире; для просмотра соседних карт щелкайте зеленые стрелки.


METAR-TAF: